sensor_id;sensor_type;location;lat;lon;timestamp;pressure;altitude;pressure_sealevel;temperature;humidity
2761;BME280;15420;48.636;9.798;2023-03-25T00:01:09;96033.41;;;12.33;70.63
2761;BME280;15420;48.636;9.798;2023-03-25T00:03:41;96042.88;;;12.31;69.41
2761;BME280;15420;48.636;9.798;2023-03-25T00:06:12;96041.16;;;12.33;69.85
2761;BME280;15420;48.636;9.798;2023-03-25T00:08:39;96036.00;;;12.33;69.32
2761;BME280;15420;48.636;9.798;2023-03-25T00:11:05;96033.41;;;12.32;69.30
2761;BME280;15420;48.636;9.798;2023-03-25T00:13:35;96048.03;;;12.27;68.47
2761;BME280;15420;48.636;9.798;2023-03-25T00:16:02;96041.13;;;12.26;67.99
2761;BME280;15420;48.636;9.798;2023-03-25T00:18:30;96029.94;;;12.24;67.49
2761;BME280;15420;48.636;9.798;2023-03-25T00:21:01;96034.25;;;12.29;67.21
2761;BME280;15420;48.636;9.798;2023-03-25T00:23:29;96040.28;;;12.30;68.34
2761;BME280;15420;48.636;9.798;2023-03-25T00:25:58;96043.72;;;12.27;67.26
2761;BME280;15420;48.636;9.798;2023-03-25T00:28:29;96031.69;;;12.31;67.34
2761;BME280;15420;48.636;9.798;2023-03-25T00:31:00;96023.06;;;12.33;67.46
2761;BME280;15420;48.636;9.798;2023-03-25T00:33:29;96023.06;;;12.30;68.86
2761;BME280;15420;48.636;9.798;2023-03-25T00:35:56;96044.59;;;12.31;68.88
2761;BME280;15420;48.636;9.798;2023-03-25T00:38:27;96059.25;;;12.33;67.45
2761;BME280;15420;48.636;9.798;2023-03-25T00:41:09;96065.28;;;12.35;69.03
2761;BME280;15420;48.636;9.798;2023-03-25T00:43:35;96085.06;;;12.35;68.88
2761;BME280;15420;48.636;9.798;2023-03-25T00:46:03;96075.59;;;12.29;68.67
2761;BME280;15420;48.636;9.798;2023-03-25T00:48:30;96098.81;;;12.26;69.82
2761;BME280;15420;48.636;9.798;2023-03-25T00:50:56;96109.16;;;12.29;72.29
2761;BME280;15420;48.636;9.798;2023-03-25T00:53:22;96103.13;;;12.27;75.79
2761;BME280;15420;48.636;9.798;2023-03-25T00:55:55;96098.81;;;12.23;76.46
2761;BME280;15420;48.636;9.798;2023-03-25T00:58:22;96093.63;;;12.17;77.41
2761;BME280;15420;48.636;9.798;2023-03-25T01:00:50;96080.69;;;12.11;79.37
2761;BME280;15420;48.636;9.798;2023-03-25T01:03:19;96081.53;;;12.07;80.42
2761;BME280;15420;48.636;9.798;2023-03-25T01:05:45;96070.31;;;11.97;81.10
2761;BME280;15420;48.636;9.798;2023-03-25T01:08:11;96069.47;;;11.97;80.82
2761;BME280;15420;48.636;9.798;2023-03-25T01:10:39;96063.41;;;11.92;80.97
2761;BME280;15420;48.636;9.798;2023-03-25T01:13:05;96075.44;;;11.87;80.67
2761;BME280;15420;48.636;9.798;2023-03-25T01:15:32;96068.53;;;11.81;80.99
2761;BME280;15420;48.636;9.798;2023-03-25T01:18:02;96054.75;;;11.77;80.15
2761;BME280;15420;48.636;9.798;2023-03-25T01:20:28;96056.38;;;11.68;79.81
2761;BME280;15420;48.636;9.798;2023-03-25T01:22:57;96053.78;;;11.60;78.30
2761;BME280;15420;48.636;9.798;2023-03-25T01:25:25;96045.19;;;11.64;77.93
2761;BME280;15420;48.636;9.798;2023-03-25T01:27:54;96047.78;;;11.64;77.56
2761;BME280;15420;48.636;9.798;2023-03-25T01:30:20;96054.63;;;11.61;76.95
2761;BME280;15420;48.636;9.798;2023-03-25T01:32:46;96033.13;;;11.59;76.09
2761;BME280;15420;48.636;9.798;2023-03-25T01:35:13;96037.41;;;11.54;75.76
2761;BME280;15420;48.636;9.798;2023-03-25T01:37:39;96031.38;;;11.52;74.39
2761;BME280;15420;48.636;9.798;2023-03-25T01:40:11;96025.34;;;11.53;72.88
2761;BME280;15420;48.636;9.798;2023-03-25T01:42:44;96027.94;;;11.51;73.23
2761;BME280;15420;48.636;9.798;2023-03-25T01:45:22;96033.94;;;11.48;72.58
2761;BME280;15420;48.636;9.798;2023-03-25T01:48:01;96024.47;;;11.41;72.53
2761;BME280;15420;48.636;9.798;2023-03-25T01:50:30;96028.75;;;11.38;71.70
2761;BME280;15420;48.636;9.798;2023-03-25T01:52:58;96028.72;;;11.35;71.28
2761;BME280;15420;48.636;9.798;2023-03-25T01:55:30;96038.16;;;11.31;71.47
2761;BME280;15420;48.636;9.798;2023-03-25T01:57:59;96020.09;;;11.27;71.81
2761;BME280;15420;48.636;9.798;2023-03-25T02:00:32;96031.25;;;11.24;71.89
2761;BME280;15420;48.636;9.798;2023-03-25T02:02:59;96032.94;;;11.19;72.34
2761;BME280;15420;48.636;9.798;2023-03-25T02:08:16;96007.97;;;11.10;71.54
2761;BME280;15420;48.636;9.798;2023-03-25T02:10:46;96021.69;;;11.08;70.92
2761;BME280;15420;48.636;9.798;2023-03-25T02:13:16;96009.66;;;11.08;70.49
2761;BME280;15420;48.636;9.798;2023-03-25T02:18:43;96032.00;;;11.06;71.34
2761;BME280;15420;48.636;9.798;2023-03-25T02:21:29;96039.69;;;11.03;70.77
2761;BME280;15420;48.636;9.798;2023-03-25T02:41:00;96032.91;;;11.13;71.51
2761;BME280;15420;48.636;9.798;2023-03-25T02:43:45;96032.88;;;11.08;70.68
2761;BME280;15420;48.636;9.798;2023-03-25T02:46:16;96032.88;;;11.08;69.72
2761;BME280;15420;48.636;9.798;2023-03-25T02:49:04;96044.09;;;11.17;69.36
2761;BME280;15420;48.636;9.798;2023-03-25T02:51:44;96034.63;;;11.14;69.47
2761;BME280;15420;48.636;9.798;2023-03-25T02:54:13;96028.59;;;11.13;69.60
2761;BME280;15420;48.636;9.798;2023-03-25T02:56:45;96039.78;;;11.14;69.52
2761;BME280;15420;48.636;9.798;2023-03-25T02:59:13;96039.75;;;11.12;69.51
2761;BME280;15420;48.636;9.798;2023-03-25T03:01:43;96050.94;;;11.14;69.24
2761;BME280;15420;48.636;9.798;2023-03-25T03:04:15;96022.53;;;11.07;69.80
2761;BME280;15420;48.636;9.798;2023-03-25T03:06:42;96041.47;;;11.12;69.84
2761;BME280;15420;48.636;9.798;2023-03-25T03:12:13;96041.50;;;11.17;68.78
2761;BME280;15420;48.636;9.798;2023-03-25T03:14:56;96045.78;;;11.14;69.87
2761;BME280;15420;48.636;9.798;2023-03-25T03:17:50;96061.28;;;11.16;69.62
2761;BME280;15420;48.636;9.798;2023-03-25T03:23:02;96096.47;;;11.12;72.73
2761;BME280;15420;48.636;9.798;2023-03-25T03:25:46;96078.38;;;11.03;74.03
2761;BME280;15420;48.636;9.798;2023-03-25T03:28:30;96067.97;;;10.93;75.72
2761;BME280;15420;48.636;9.798;2023-03-25T03:31:16;96065.34;;;10.85;76.06
2761;BME280;15420;48.636;9.798;2023-03-25T03:33:54;96076.53;;;10.87;76.51
2761;BME280;15420;48.636;9.798;2023-03-25T03:36:26;96073.88;;;10.81;76.65
2761;BME280;15420;48.636;9.798;2023-03-25T03:39:08;96073.00;;;10.77;76.79
2761;BME280;15420;48.636;9.798;2023-03-25T03:41:40;96077.25;;;10.74;76.49
2761;BME280;15420;48.636;9.798;2023-03-25T03:44:13;96084.03;;;10.63;77.33
2761;BME280;15420;48.636;9.798;2023-03-25T03:46:52;96093.50;;;10.67;77.63
2761;BME280;15420;48.636;9.798;2023-03-25T03:49:23;96096.03;;;10.59;77.80
2761;BME280;15420;48.636;9.798;2023-03-25T03:52:14;96090.00;;;10.57;77.89
2761;BME280;15420;48.636;9.798;2023-03-25T03:54:50;96090.00;;;10.57;78.01
2761;BME280;15420;48.636;9.798;2023-03-25T04:00:04;96091.66;;;10.51;78.51
2761;BME280;15420;48.636;9.798;2023-03-25T04:05:15;96087.28;;;10.43;78.24
2761;BME280;15420;48.636;9.798;2023-03-25T04:07:52;96084.66;;;10.36;78.26
2761;BME280;15420;48.636;9.798;2023-03-25T04:10:29;96087.16;;;10.28;78.30
2761;BME280;15420;48.636;9.798;2023-03-25T04:13:08;96081.16;;;10.29;77.54
2761;BME280;15420;48.636;9.798;2023-03-25T04:15:39;96071.72;;;10.28;76.65
2761;BME280;15420;48.636;9.798;2023-03-25T04:18:06;96090.56;;;10.26;77.83
2761;BME280;15420;48.636;9.798;2023-03-25T04:20:34;96086.28;;;10.26;77.62
2761;BME280;15420;48.636;9.798;2023-03-25T04:23:02;96095.72;;;10.26;78.64
2761;BME280;15420;48.636;9.798;2023-03-25T04:25:31;96081.94;;;10.22;78.79
2761;BME280;15420;48.636;9.798;2023-03-25T04:28:02;96078.50;;;10.22;78.05
2761;BME280;15420;48.636;9.798;2023-03-25T04:30:28;96093.00;;;10.18;79.54
2761;BME280;15420;48.636;9.798;2023-03-25T04:32:57;96075.84;;;10.19;79.19
2761;BME280;15420;48.636;9.798;2023-03-25T04:35:27;96074.97;;;10.16;78.19
2761;BME280;15420;48.636;9.798;2023-03-25T04:37:53;96087.84;;;10.15;77.50
2761;BME280;15420;48.636;9.798;2023-03-25T04:40:25;96080.97;;;10.15;77.41
2761;BME280;15420;48.636;9.798;2023-03-25T04:42:51;96079.22;;;10.13;77.82
2761;BME280;15420;48.636;9.798;2023-03-25T04:45:21;96079.09;;;10.02;76.92
2761;BME280;15420;48.636;9.798;2023-03-25T04:47:48;96080.00;;;10.04;76.65
2761;BME280;15420;48.636;9.798;2023-03-25T04:50:28;96073.19;;;10.09;75.81
2761;BME280;15420;48.636;9.798;2023-03-25T04:52:55;96065.41;;;10.05;76.73
2761;BME280;15420;48.636;9.798;2023-03-25T04:55:25;96075.72;;;10.05;75.66
2761;BME280;15420;48.636;9.798;2023-03-25T04:57:53;96091.97;;;10.02;75.02
2761;BME280;15420;48.636;9.798;2023-03-25T05:00:21;96082.50;;;10.00;75.10
2761;BME280;15420;48.636;9.798;2023-03-25T05:02:52;96084.19;;;9.96;75.00
2761;BME280;15420;48.636;9.798;2023-03-25T05:05:21;96097.94;;;9.98;74.69
2761;BME280;15420;48.636;9.798;2023-03-25T05:07:49;96095.34;;;9.97;74.23
2761;BME280;15420;48.636;9.798;2023-03-25T05:10:17;96101.28;;;9.91;74.24
2761;BME280;15420;48.636;9.798;2023-03-25T05:12:44;96097.88;;;9.94;72.90
2761;BME280;15420;48.636;9.798;2023-03-25T05:15:13;96085.88;;;9.96;72.40
2761;BME280;15420;48.636;9.798;2023-03-25T05:17:42;96091.00;;;9.93;73.38
2761;BME280;15420;48.636;9.798;2023-03-25T05:20:09;96097.03;;;9.95;72.99
2761;BME280;15420;48.636;9.798;2023-03-25T05:22:37;96103.88;;;9.94;73.25
2761;BME280;15420;48.636;9.798;2023-03-25T05:25:10;96104.75;;;9.95;74.16
2761;BME280;15420;48.636;9.798;2023-03-25T05:27:37;96115.03;;;9.95;74.61
2761;BME280;15420;48.636;9.798;2023-03-25T05:30:04;96115.03;;;9.95;74.35
2761;BME280;15420;48.636;9.798;2023-03-25T05:32:36;96127.03;;;9.94;74.10
2761;BME280;15420;48.636;9.798;2023-03-25T05:35:06;96118.41;;;9.91;73.54
2761;BME280;15420;48.636;9.798;2023-03-25T05:37:32;96121.00;;;9.92;74.26
2761;BME280;15420;48.636;9.798;2023-03-25T05:39:58;96126.16;;;9.92;74.24
2761;BME280;15420;48.636;9.798;2023-03-25T05:42:25;96120.13;;;9.90;73.78
2761;BME280;15420;48.636;9.798;2023-03-25T05:44:55;96132.09;;;9.87;75.20
2761;BME280;15420;48.636;9.798;2023-03-25T05:47:26;96131.25;;;9.88;74.98
2761;BME280;15420;48.636;9.798;2023-03-25T05:49:55;96123.50;;;9.86;74.00
2761;BME280;15420;48.636;9.798;2023-03-25T05:52:24;96138.94;;;9.86;75.14
2761;BME280;15420;48.636;9.798;2023-03-25T05:54:52;96134.66;;;9.87;74.63
2761;BME280;15420;48.636;9.798;2023-03-25T05:57:26;96147.56;;;9.90;74.79
2761;BME280;15420;48.636;9.798;2023-03-25T05:59:55;96135.56;;;9.90;74.92
2761;BME280;15420;48.636;9.798;2023-03-25T06:02:22;96145.88;;;9.92;74.42
2761;BME280;15420;48.636;9.798;2023-03-25T06:04:48;96139.03;;;9.94;75.07
2761;BME280;15420;48.636;9.798;2023-03-25T06:07:16;96132.22;;;9.97;74.99
2761;BME280;15420;48.636;9.798;2023-03-25T06:09:46;96146.88;;;10.01;74.49
2761;BME280;15420;48.636;9.798;2023-03-25T06:12:20;96135.75;;;10.04;74.05
2761;BME280;15420;48.636;9.798;2023-03-25T06:14:48;96151.13;;;9.99;73.23
2761;BME280;15420;48.636;9.798;2023-03-25T06:17:20;96156.34;;;10.05;73.45
2761;BME280;15420;48.636;9.798;2023-03-25T06:19:50;96171.88;;;10.11;72.40
2761;BME280;15420;48.636;9.798;2023-03-25T06:22:19;96161.63;;;10.16;72.01
2761;BME280;15420;48.636;9.798;2023-03-25T06:24:47;96159.94;;;10.18;72.35
2761;BME280;15420;48.636;9.798;2023-03-25T06:27:18;96160.91;;;10.23;72.39
2761;BME280;15420;48.636;9.798;2023-03-25T06:29:46;96158.34;;;10.26;72.35
2761;BME280;15420;48.636;9.798;2023-03-25T06:32:17;96148.09;;;10.29;71.82
2761;BME280;15420;48.636;9.798;2023-03-25T06:34:43;96148.13;;;10.32;72.02
2761;BME280;15420;48.636;9.798;2023-03-25T06:37:12;96154.19;;;10.37;72.24
2761;BME280;15420;48.636;9.798;2023-03-25T06:39:38;96162.81;;;10.39;71.81
2761;BME280;15420;48.636;9.798;2023-03-25T06:42:05;96155.94;;;10.43;71.76
2761;BME280;15420;48.636;9.798;2023-03-25T06:44:32;96174.00;;;10.46;71.22
2761;BME280;15420;48.636;9.798;2023-03-25T06:46:58;96175.75;;;10.47;70.95
2761;BME280;15420;48.636;9.798;2023-03-25T06:49:31;96167.19;;;10.51;70.53
2761;BME280;15420;48.636;9.798;2023-03-25T06:52:02;96162.09;;;10.54;70.84
2761;BME280;15420;48.636;9.798;2023-03-25T06:54:28;96157.81;;;10.58;70.41
2761;BME280;15420;48.636;9.798;2023-03-25T06:56:54;96156.97;;;10.57;70.26
2761;BME280;15420;48.636;9.798;2023-03-25T06:59:23;96154.41;;;10.59;70.54
2761;BME280;15420;48.636;9.798;2023-03-25T07:01:52;96164.72;;;10.59;69.44
2761;BME280;15420;48.636;9.798;2023-03-25T07:04:21;96165.63;;;10.64;68.97
2761;BME280;15420;48.636;9.798;2023-03-25T07:06:47;96181.16;;;10.70;69.16
2761;BME280;15420;48.636;9.798;2023-03-25T07:09:13;96175.16;;;10.71;69.00
2761;BME280;15420;48.636;9.798;2023-03-25T07:11:39;96176.88;;;10.73;68.73
2761;BME280;15420;48.636;9.798;2023-03-25T07:14:09;96169.19;;;10.78;68.03
2761;BME280;15420;48.636;9.798;2023-03-25T07:16:36;96181.28;;;10.84;68.14
2761;BME280;15420;48.636;9.798;2023-03-25T07:19:04;96165.00;;;10.88;68.01
2761;BME280;15420;48.636;9.798;2023-03-25T07:21:30;96164.16;;;10.90;67.62
2761;BME280;15420;48.636;9.798;2023-03-25T07:23:56;96177.06;;;10.92;67.64
2761;BME280;15420;48.636;9.798;2023-03-25T07:26:22;96172.81;;;10.95;67.66
2761;BME280;15420;48.636;9.798;2023-03-25T07:28:49;96169.41;;;10.98;67.78
2761;BME280;15420;48.636;9.798;2023-03-25T07:31:15;96170.28;;;11.01;67.23
2761;BME280;15420;48.636;9.798;2023-03-25T07:33:45;96172.91;;;11.04;67.13
2761;BME280;15420;48.636;9.798;2023-03-25T07:36:12;96160.03;;;11.06;66.97
2761;BME280;15420;48.636;9.798;2023-03-25T07:38:41;96169.50;;;11.10;66.76
2761;BME280;15420;48.636;9.798;2023-03-25T07:41:09;96165.22;;;11.12;66.57
2761;BME280;15420;48.636;9.798;2023-03-25T07:43:44;96157.50;;;11.13;67.17
2761;BME280;15420;48.636;9.798;2023-03-25T07:46:11;96152.38;;;11.17;67.88
2761;BME280;15420;48.636;9.798;2023-03-25T07:48:39;96148.94;;;11.18;67.45
2761;BME280;15420;48.636;9.798;2023-03-25T07:51:06;96167.03;;;11.22;66.65
2761;BME280;15420;48.636;9.798;2023-03-25T07:53:34;96158.47;;;11.25;66.98
2761;BME280;15420;48.636;9.798;2023-03-25T07:56:04;96165.38;;;11.27;66.29
2761;BME280;15420;48.636;9.798;2023-03-25T07:58:31;96171.41;;;11.31;66.86
2761;BME280;15420;48.636;9.798;2023-03-25T08:00:58;96180.03;;;11.34;66.74
2761;BME280;15420;48.636;9.798;2023-03-25T08:03:24;96171.47;;;11.38;67.32
2761;BME280;15420;48.636;9.798;2023-03-25T08:05:54;96167.19;;;11.42;67.53
2761;BME280;15420;48.636;9.798;2023-03-25T08:08:22;96165.47;;;11.45;67.35
2761;BME280;15420;48.636;9.798;2023-03-25T08:10:52;96154.31;;;11.50;67.26
2761;BME280;15420;48.636;9.798;2023-03-25T08:13:18;96162.09;;;11.53;67.28
2761;BME280;15420;48.636;9.798;2023-03-25T08:15:47;96172.44;;;11.57;67.77
2761;BME280;15420;48.636;9.798;2023-03-25T08:18:13;96161.25;;;11.58;67.73
2761;BME280;15420;48.636;9.798;2023-03-25T08:20:42;96156.13;;;11.60;69.28
2761;BME280;15420;48.636;9.798;2023-03-25T08:23:08;96155.25;;;11.59;70.11
2761;BME280;15420;48.636;9.798;2023-03-25T08:25:43;96159.56;;;11.60;70.51
2761;BME280;15420;48.636;9.798;2023-03-25T08:28:17;96156.16;;;11.64;70.76
2761;BME280;15420;48.636;9.798;2023-03-25T08:30:46;96155.31;;;11.67;68.62
2761;BME280;15420;48.636;9.798;2023-03-25T08:33:14;96150.16;;;11.70;68.31
2761;BME280;15420;48.636;9.798;2023-03-25T08:35:41;96153.63;;;11.72;66.49
2761;BME280;15420;48.636;9.798;2023-03-25T08:38:08;96157.06;;;11.75;66.83
2761;BME280;15420;48.636;9.798;2023-03-25T08:40:35;96158.84;;;11.79;67.05
2761;BME280;15420;48.636;9.798;2023-03-25T08:43:06;96146.84;;;11.83;67.14
2761;BME280;15420;48.636;9.798;2023-03-25T08:45:32;96145.13;;;11.87;66.85
2761;BME280;15420;48.636;9.798;2023-03-25T08:48:00;96146.88;;;11.91;67.88
2761;BME280;15420;48.636;9.798;2023-03-25T08:50:26;96147.75;;;11.93;68.62
2761;BME280;15420;48.636;9.798;2023-03-25T08:53:04;96152.94;;;11.97;69.08
2761;BME280;15420;48.636;9.798;2023-03-25T08:55:33;96146.03;;;11.92;69.46
2761;BME280;15420;48.636;9.798;2023-03-25T08:58:03;96140.00;;;11.91;70.38
2761;BME280;15420;48.636;9.798;2023-03-25T09:00:33;96134.81;;;11.88;72.12
2761;BME280;15420;48.636;9.798;2023-03-25T09:03:01;96143.41;;;11.86;72.74
2761;BME280;15420;48.636;9.798;2023-03-25T09:05:32;96135.63;;;11.81;73.53
2761;BME280;15420;48.636;9.798;2023-03-25T09:08:02;96137.34;;;11.77;74.50
2761;BME280;15420;48.636;9.798;2023-03-25T09:10:28;96140.72;;;11.73;74.67
2761;BME280;15420;48.636;9.798;2023-03-25T09:12:55;96137.25;;;11.71;75.93
2761;BME280;15420;48.636;9.798;2023-03-25T09:15:22;96136.38;;;11.68;76.03
2761;BME280;15420;48.636;9.798;2023-03-25T09:17:51;96138.94;;;11.66;76.67
2761;BME280;15420;48.636;9.798;2023-03-25T09:20:20;96136.38;;;11.65;76.23
2761;BME280;15420;48.636;9.798;2023-03-25T09:22:49;96132.03;;;11.62;75.97
2761;BME280;15420;48.636;9.798;2023-03-25T09:25:26;96135.50;;;11.64;76.51
2761;BME280;15420;48.636;9.798;2023-03-25T09:27:56;96124.31;;;11.62;77.78
2761;BME280;15420;48.636;9.798;2023-03-25T09:30:22;96118.28;;;11.62;78.09
2761;BME280;15420;48.636;9.798;2023-03-25T09:32:48;96132.91;;;11.64;78.53
2761;BME280;15420;48.636;9.798;2023-03-25T09:35:15;96123.47;;;11.65;79.75
2761;BME280;15420;48.636;9.798;2023-03-25T09:37:44;96123.47;;;11.66;80.00
2761;BME280;15420;48.636;9.798;2023-03-25T09:40:13;96109.72;;;11.67;79.92
2761;BME280;15420;48.636;9.798;2023-03-25T09:45:36;96096.91;;;11.78;81.77
2761;BME280;15420;48.636;9.798;2023-03-25T09:50:59;96099.56;;;11.92;84.11
2761;BME280;15420;48.636;9.798;2023-03-25T09:54:11;96103.91;;;12.00;84.64
2761;BME280;15420;48.636;9.798;2023-03-25T09:56:39;96096.16;;;12.03;84.12
2761;BME280;15420;48.636;9.798;2023-03-25T09:59:21;96103.06;;;12.09;83.55
2761;BME280;15420;48.636;9.798;2023-03-25T10:10:26;96094.53;;;12.25;77.78
2761;BME280;15420;48.636;9.798;2023-03-25T10:20:56;96085.94;;;12.32;73.79
2761;BME280;15420;48.636;9.798;2023-03-25T10:27:47;96077.31;;;12.35;70.28
2761;BME280;15420;48.636;9.798;2023-03-25T10:30:37;96081.66;;;12.40;72.44
2761;BME280;15420;48.636;9.798;2023-03-25T10:35:49;96073.88;;;12.53;71.33
2761;BME280;15420;48.636;9.798;2023-03-25T10:38:21;96074.78;;;12.64;70.86
2761;BME280;15420;48.636;9.798;2023-03-25T10:41:47;96070.47;;;12.80;71.49
2761;BME280;15420;48.636;9.798;2023-03-25T10:43:49;96082.53;;;12.85;71.11
2761;BME280;15420;48.636;9.798;2023-03-25T10:48:50;96114.44;;;12.90;71.47
2761;BME280;15420;48.636;9.798;2023-03-25T10:51:32;96118.75;;;12.91;74.51
2761;BME280;15420;48.636;9.798;2023-03-25T10:54:00;96129.94;;;12.81;75.75
2761;BME280;15420;48.636;9.798;2023-03-25T10:56:35;96135.09;;;12.75;76.57
2761;BME280;15420;48.636;9.798;2023-03-25T10:59:13;96141.97;;;12.65;79.09
2761;BME280;15420;48.636;9.798;2023-03-25T11:01:48;96129.03;;;12.58;81.40
2761;BME280;15420;48.636;9.798;2023-03-25T11:04:33;96128.16;;;12.51;83.94
2761;BME280;15420;48.636;9.798;2023-03-25T11:07:16;96135.06;;;12.48;84.43
2761;BME280;15420;48.636;9.798;2023-03-25T11:09:47;96162.59;;;12.36;83.49
2761;BME280;15420;48.636;9.798;2023-03-25T11:12:17;96179.75;;;12.27;80.29
2761;BME280;15420;48.636;9.798;2023-03-25T11:15:05;96135.81;;;12.15;81.05
2761;BME280;15420;48.636;9.798;2023-03-25T11:17:35;96131.47;;;12.07;85.34
2761;BME280;15420;48.636;9.798;2023-03-25T11:20:05;96122.03;;;12.14;88.69
2761;BME280;15420;48.636;9.798;2023-03-25T11:22:50;96116.91;;;12.23;89.66
2761;BME280;15420;48.636;9.798;2023-03-25T11:25:24;96122.09;;;12.34;90.60
2761;BME280;15420;48.636;9.798;2023-03-25T11:28:17;96116.97;;;12.55;88.60
2761;BME280;15420;48.636;9.798;2023-03-25T11:33:38;96104.13;;;13.24;88.03
2761;BME280;15420;48.636;9.798;2023-03-25T11:41:49;96092.59;;;14.42;81.84
2761;BME280;15420;48.636;9.798;2023-03-25T11:46:50;96073.28;;;14.81;76.70
2761;BME280;15420;48.636;9.798;2023-03-25T11:49:26;96087.91;;;14.93;74.90
2761;BME280;15420;48.636;9.798;2023-03-25T11:52:02;96072.25;;;15.05;73.74
2761;BME280;15420;48.636;9.798;2023-03-25T11:54:36;96085.03;;;15.29;71.80
2761;BME280;15420;48.636;9.798;2023-03-25T11:57:27;96082.94;;;15.66;66.89
2761;BME280;15420;48.636;9.798;2023-03-25T12:02:46;96073.88;;;16.04;63.62
2761;BME280;15420;48.636;9.798;2023-03-25T12:05:14;96080.78;;;16.03;62.67
2761;BME280;15420;48.636;9.798;2023-03-25T12:07:51;96078.34;;;15.90;60.31
2761;BME280;15420;48.636;9.798;2023-03-25T12:18:53;96105.78;;;15.31;60.29
2761;BME280;15420;48.636;9.798;2023-03-25T12:21:44;96098.72;;;15.47;60.99
2761;BME280;15420;48.636;9.798;2023-03-25T13:00:08;96068.94;;;18.47;47.36
2761;BME280;15420;48.636;9.798;2023-03-25T13:05:16;96063.88;;;19.15;45.64
2761;BME280;15420;48.636;9.798;2023-03-25T13:07:53;96046.84;;;19.35;45.00
2761;BME280;15420;48.636;9.798;2023-03-25T13:10:40;96050.91;;;19.46;43.29
2761;BME280;15420;48.636;9.798;2023-03-25T13:13:37;96055.25;;;19.47;44.19
2761;BME280;15420;48.636;9.798;2023-03-25T13:18:43;96107.72;;;19.03;45.16
2761;BME280;15420;48.636;9.798;2023-03-25T13:24:23;96092.78;;;18.29;47.89
2761;BME280;15420;48.636;9.798;2023-03-25T13:26:53;96077.69;;;18.02;48.32
2761;BME280;15420;48.636;9.798;2023-03-25T13:29:42;96104.53;;;17.59;49.63
2761;BME280;15420;48.636;9.798;2023-03-25T13:32:19;96095.00;;;17.58;50.55
2761;BME280;15420;48.636;9.798;2023-03-25T13:35:27;96103.50;;;17.69;49.61
2761;BME280;15420;48.636;9.798;2023-03-25T13:38:02;96099.09;;;17.73;48.77
2761;BME280;15420;48.636;9.798;2023-03-25T13:52:03;96087.94;;;17.68;48.64
2761;BME280;15420;48.636;9.798;2023-03-25T13:54:38;96109.88;;;17.51;46.83
2761;BME280;15420;48.636;9.798;2023-03-25T14:02:53;96109.50;;;17.22;49.60
2761;BME280;15420;48.636;9.798;2023-03-25T14:13:04;96108.88;;;17.60;48.03
2761;BME280;15420;48.636;9.798;2023-03-25T14:15:38;96104.13;;;17.82;48.27
2761;BME280;15420;48.636;9.798;2023-03-25T14:18:16;96103.63;;;18.09;47.49
2761;BME280;15420;48.636;9.798;2023-03-25T14:20:48;96099.59;;;18.36;45.33
2761;BME280;15420;48.636;9.798;2023-03-25T14:23:17;96116.53;;;18.58;44.49
2761;BME280;15420;48.636;9.798;2023-03-25T14:26:01;96103.78;;;18.85;44.41
2761;BME280;15420;48.636;9.798;2023-03-25T14:28:43;96101.28;;;19.17;42.87
2761;BME280;15420;48.636;9.798;2023-03-25T14:31:30;96090.03;;;19.49;43.13
2761;BME280;15420;48.636;9.798;2023-03-25T14:38:58;96095.75;;;20.29;38.49
2761;BME280;15420;48.636;9.798;2023-03-25T14:42:03;96106.28;;;20.58;37.14
2761;BME280;15420;48.636;9.798;2023-03-25T14:44:42;96115.72;;;20.64;38.78
2761;BME280;15420;48.636;9.798;2023-03-25T14:49:54;96107.59;;;20.43;39.56
2761;BME280;15420;48.636;9.798;2023-03-25T14:52:30;96110.50;;;20.31;38.25
2761;BME280;15420;48.636;9.798;2023-03-25T14:55:27;96096.06;;;20.18;38.48
2761;BME280;15420;48.636;9.798;2023-03-25T14:58:01;96089.00;;;19.89;40.16
2761;BME280;15420;48.636;9.798;2023-03-25T15:00:41;96106.31;;;19.62;40.48
2761;BME280;15420;48.636;9.798;2023-03-25T15:03:18;96105.56;;;19.20;44.38
2761;BME280;15420;48.636;9.798;2023-03-25T15:05:54;96100.03;;;18.97;49.28
2761;BME280;15420;48.636;9.798;2023-03-25T15:08:54;96099.59;;;18.76;53.32
2761;BME280;15420;48.636;9.798;2023-03-25T15:14:32;96103.91;;;18.39;53.82
2761;BME280;15420;48.636;9.798;2023-03-25T15:17:12;96087.25;;;18.44;53.43
2761;BME280;15420;48.636;9.798;2023-03-25T15:22:37;96091.28;;;18.59;51.91
2761;BME280;15420;48.636;9.798;2023-03-25T15:25:15;96087.63;;;18.69;50.66
2761;BME280;15420;48.636;9.798;2023-03-25T15:28:19;96092.53;;;18.81;51.14
2761;BME280;15420;48.636;9.798;2023-03-25T15:34:14;96092.03;;;19.03;50.07
2761;BME280;15420;48.636;9.798;2023-03-25T15:51:27;96086.28;;;18.50;44.00
2761;BME280;15420;48.636;9.798;2023-03-25T15:54:26;96102.53;;;18.19;47.42
2761;BME280;15420;48.636;9.798;2023-03-25T15:57:27;96104.84;;;17.90;44.97
2761;BME280;15420;48.636;9.798;2023-03-25T16:00:05;96106.00;;;17.75;46.14
2761;BME280;15420;48.636;9.798;2023-03-25T16:05:29;96107.72;;;17.25;46.39
2761;BME280;15420;48.636;9.798;2023-03-25T16:10:52;96092.66;;;16.89;48.05
2761;BME280;15420;48.636;9.798;2023-03-25T16:13:20;96109.34;;;16.74;49.16
2761;BME280;15420;48.636;9.798;2023-03-25T16:15:55;96106.97;;;16.59;48.87
2761;BME280;15420;48.636;9.798;2023-03-25T16:18:29;96107.19;;;16.41;48.61
2761;BME280;15420;48.636;9.798;2023-03-25T16:21:05;96110.81;;;16.30;49.05
2761;BME280;15420;48.636;9.798;2023-03-25T16:23:31;96107.47;;;16.19;48.65
2761;BME280;15420;48.636;9.798;2023-03-25T16:26:04;96113.66;;;16.08;48.23
2761;BME280;15420;48.636;9.798;2023-03-25T16:28:38;96114.69;;;15.93;48.86
2761;BME280;15420;48.636;9.798;2023-03-25T16:31:29;96111.34;;;15.83;48.91
2761;BME280;15420;48.636;9.798;2023-03-25T16:34:05;96118.44;;;15.66;49.48
2761;BME280;15420;48.636;9.798;2023-03-25T16:36:31;96125.44;;;15.56;50.11
2761;BME280;15420;48.636;9.798;2023-03-25T16:39:01;96127.25;;;15.48;49.66
2761;BME280;15420;48.636;9.798;2023-03-25T16:41:38;96126.50;;;15.35;48.96
2761;BME280;15420;48.636;9.798;2023-03-25T16:44:20;96122.28;;;15.24;49.04
2761;BME280;15420;48.636;9.798;2023-03-25T16:46:52;96126.72;;;15.10;49.02
2761;BME280;15420;48.636;9.798;2023-03-25T16:51:52;96125.94;;;14.94;48.89
2761;BME280;15420;48.636;9.798;2023-03-25T16:54:42;96124.28;;;14.85;48.97
2761;BME280;15420;48.636;9.798;2023-03-25T16:57:18;96107.06;;;14.70;49.62